sensor_id;sensor_type;location;lat;lon;timestamp;P1;durP1;ratioP1;P2;durP2;ratioP2
54139;SDS011;40046;53.254;5.900;2023-03-01T00:01:20;8.45;;;5.15;;
54139;SDS011;40046;53.254;5.900;2023-03-01T00:03:47;9.23;;;5.37;;
54139;SDS011;40046;53.254;5.900;2023-03-01T00:06:13;7.90;;;5.38;;
54139;SDS011;40046;53.254;5.900;2023-03-01T00:08:40;9.07;;;5.85;;
54139;SDS011;40046;53.254;5.900;2023-03-01T00:13:32;11.32;;;6.97;;
54139;SDS011;40046;53.254;5.900;2023-03-01T00:15:58;8.70;;;6.85;;
54139;SDS011;40046;53.254;5.900;2023-03-01T00:18:24;9.98;;;6.45;;
54139;SDS011;40046;53.254;5.900;2023-03-01T00:20:51;7.90;;;5.25;;
54139;SDS011;40046;53.254;5.900;2023-03-01T00:23:17;7.20;;;4.72;;
54139;SDS011;40046;53.254;5.900;2023-03-01T00:25:43;9.32;;;5.03;;
54139;SDS011;40046;53.254;5.900;2023-03-01T00:28:10;8.50;;;4.97;;
54139;SDS011;40046;53.254;5.900;2023-03-01T00:30:36;7.10;;;4.60;;
54139;SDS011;40046;53.254;5.900;2023-03-01T00:33:02;6.22;;;4.30;;
54139;SDS011;40046;53.254;5.900;2023-03-01T00:35:28;7.00;;;4.57;;
54139;SDS011;40046;53.254;5.900;2023-03-01T00:37:56;7.32;;;4.97;;
54139;SDS011;40046;53.254;5.900;2023-03-01T00:40:23;5.88;;;3.88;;
54139;SDS011;40046;53.254;5.900;2023-03-01T00:42:49;6.47;;;4.50;;
54139;SDS011;40046;53.254;5.900;2023-03-01T00:45:16;9.73;;;5.32;;
54139;SDS011;40046;53.254;5.900;2023-03-01T00:47:42;11.35;;;7.85;;
54139;SDS011;40046;53.254;5.900;2023-03-01T00:50:09;14.32;;;9.45;;
54139;SDS011;40046;53.254;5.900;2023-03-01T00:52:35;14.18;;;7.70;;
54139;SDS011;40046;53.254;5.900;2023-03-01T00:55:02;16.92;;;8.70;;
54139;SDS011;40046;53.254;5.900;2023-03-01T00:57:28;24.38;;;9.73;;
54139;SDS011;40046;53.254;5.900;2023-03-01T00:59:54;45.47;;;6.95;;
54139;SDS011;40046;53.254;5.900;2023-03-01T01:02:20;79.35;;;6.25;;
54139;SDS011;40046;53.254;5.900;2023-03-01T01:04:47;57.38;;;6.30;;
54139;SDS011;40046;53.254;5.900;2023-03-01T01:07:13;112.43;;;8.93;;
54139;SDS011;40046;53.254;5.900;2023-03-01T01:09:40;96.40;;;7.30;;
54139;SDS011;40046;53.254;5.900;2023-03-01T01:12:06;66.20;;;7.05;;
54139;SDS011;40046;53.254;5.900;2023-03-01T01:14:33;61.55;;;5.72;;
54139;SDS011;40046;53.254;5.900;2023-03-01T01:16:59;65.38;;;5.68;;
54139;SDS011;40046;53.254;5.900;2023-03-01T01:19:26;61.20;;;7.53;;
54139;SDS011;40046;53.254;5.900;2023-03-01T01:21:54;61.15;;;6.10;;
54139;SDS011;40046;53.254;5.900;2023-03-01T01:24:24;109.45;;;10.05;;
54139;SDS011;40046;53.254;5.900;2023-03-01T01:26:50;91.05;;;7.68;;
54139;SDS011;40046;53.254;5.900;2023-03-01T01:29:17;142.57;;;9.07;;
54139;SDS011;40046;53.254;5.900;2023-03-01T01:31:43;121.70;;;9.85;;
54139;SDS011;40046;53.254;5.900;2023-03-01T01:34:12;127.53;;;10.90;;
54139;SDS011;40046;53.254;5.900;2023-03-01T01:36:39;122.85;;;8.27;;
54139;SDS011;40046;53.254;5.900;2023-03-01T01:39:05;83.30;;;6.90;;
54139;SDS011;40046;53.254;5.900;2023-03-01T01:41:32;128.05;;;10.38;;
54139;SDS011;40046;53.254;5.900;2023-03-01T01:46:47;48.33;;;6.10;;
54139;SDS011;40046;53.254;5.900;2023-03-01T01:49:19;33.42;;;5.05;;
54139;SDS011;40046;53.254;5.900;2023-03-01T01:51:49;34.75;;;6.45;;
54139;SDS011;40046;53.254;5.900;2023-03-01T01:54:28;27.88;;;6.85;;
54139;SDS011;40046;53.254;5.900;2023-03-01T01:57:00;26.35;;;5.35;;
54139;SDS011;40046;53.254;5.900;2023-03-01T01:59:28;17.58;;;4.65;;
54139;SDS011;40046;53.254;5.900;2023-03-01T02:01:55;59.20;;;6.00;;
54139;SDS011;40046;53.254;5.900;2023-03-01T02:04:23;24.23;;;6.10;;
54139;SDS011;40046;53.254;5.900;2023-03-01T02:07:32;30.75;;;7.35;;
54139;SDS011;40046;53.254;5.900;2023-03-01T02:09:41;28.02;;;7.53;;
54139;SDS011;40046;53.254;5.900;2023-03-01T02:12:07;56.50;;;7.80;;
54139;SDS011;40046;53.254;5.900;2023-03-01T02:14:34;87.22;;;9.50;;
54139;SDS011;40046;53.254;5.900;2023-03-01T02:17:00;59.70;;;9.15;;
54139;SDS011;40046;53.254;5.900;2023-03-01T02:22:12;45.25;;;8.52;;
54139;SDS011;40046;53.254;5.900;2023-03-01T02:24:44;58.53;;;8.68;;
54139;SDS011;40046;53.254;5.900;2023-03-01T02:27:12;22.75;;;8.35;;
54139;SDS011;40046;53.254;5.900;2023-03-01T02:29:38;43.75;;;8.05;;
54139;SDS011;40046;53.254;5.900;2023-03-01T02:32:05;83.43;;;10.48;;
54139;SDS011;40046;53.254;5.900;2023-03-01T02:34:32;49.53;;;8.82;;
54139;SDS011;40046;53.254;5.900;2023-03-01T02:37:03;16.70;;;7.15;;
54139;SDS011;40046;53.254;5.900;2023-03-01T02:39:31;26.48;;;7.85;;
54139;SDS011;40046;53.254;5.900;2023-03-01T02:41:58;70.47;;;9.05;;
54139;SDS011;40046;53.254;5.900;2023-03-01T02:44:25;72.35;;;10.05;;
54139;SDS011;40046;53.254;5.900;2023-03-01T02:46:52;15.50;;;7.70;;
54139;SDS011;40046;53.254;5.900;2023-03-01T02:49:26;17.67;;;8.00;;
54139;SDS011;40046;53.254;5.900;2023-03-01T02:52:01;49.20;;;10.23;;
54139;SDS011;40046;53.254;5.900;2023-03-01T02:54:33;22.80;;;7.40;;
54139;SDS011;40046;53.254;5.900;2023-03-01T02:57:02;56.20;;;9.35;;
54139;SDS011;40046;53.254;5.900;2023-03-01T02:59:31;63.17;;;9.25;;
54139;SDS011;40046;53.254;5.900;2023-03-01T03:02:05;82.50;;;10.02;;
54139;SDS011;40046;53.254;5.900;2023-03-01T03:04:32;104.25;;;10.77;;
54139;SDS011;40046;53.254;5.900;2023-03-01T03:06:58;138.45;;;12.18;;
54139;SDS011;40046;53.254;5.900;2023-03-01T03:09:25;114.40;;;13.93;;
54139;SDS011;40046;53.254;5.900;2023-03-01T03:11:51;27.25;;;7.63;;
54139;SDS011;40046;53.254;5.900;2023-03-01T03:14:18;18.45;;;8.45;;
54139;SDS011;40046;53.254;5.900;2023-03-01T03:16:47;53.00;;;9.45;;
54139;SDS011;40046;53.254;5.900;2023-03-01T03:19:15;52.20;;;8.30;;
54139;SDS011;40046;53.254;5.900;2023-03-01T03:21:41;69.35;;;9.05;;
54139;SDS011;40046;53.254;5.900;2023-03-01T03:24:08;51.85;;;9.95;;
54139;SDS011;40046;53.254;5.900;2023-03-01T03:26:34;23.67;;;7.72;;
54139;SDS011;40046;53.254;5.900;2023-03-01T03:29:00;17.50;;;7.80;;
54139;SDS011;40046;53.254;5.900;2023-03-01T03:31:26;14.27;;;7.82;;
54139;SDS011;40046;53.254;5.900;2023-03-01T03:33:52;11.88;;;8.10;;
54139;SDS011;40046;53.254;5.900;2023-03-01T03:36:19;14.20;;;8.43;;
54139;SDS011;40046;53.254;5.900;2023-03-01T03:38:46;11.07;;;8.10;;
54139;SDS011;40046;53.254;5.900;2023-03-01T03:41:12;11.23;;;8.05;;
54139;SDS011;40046;53.254;5.900;2023-03-01T03:43:39;11.02;;;7.75;;
54139;SDS011;40046;53.254;5.900;2023-03-01T03:46:06;10.40;;;7.22;;
54139;SDS011;40046;53.254;5.900;2023-03-01T03:48:33;11.20;;;8.05;;
54139;SDS011;40046;53.254;5.900;2023-03-01T03:50:59;14.95;;;6.97;;
54139;SDS011;40046;53.254;5.900;2023-03-01T03:53:26;28.95;;;9.52;;
54139;SDS011;40046;53.254;5.900;2023-03-01T03:55:53;36.75;;;7.70;;
54139;SDS011;40046;53.254;5.900;2023-03-01T03:58:20;33.40;;;8.07;;
54139;SDS011;40046;53.254;5.900;2023-03-01T04:00:47;22.95;;;8.38;;
54139;SDS011;40046;53.254;5.900;2023-03-01T04:03:15;20.90;;;8.43;;
54139;SDS011;40046;53.254;5.900;2023-03-01T04:05:43;38.20;;;8.88;;
54139;SDS011;40046;53.254;5.900;2023-03-01T04:08:10;37.45;;;7.80;;
54139;SDS011;40046;53.254;5.900;2023-03-01T04:10:40;32.78;;;8.25;;
54139;SDS011;40046;53.254;5.900;2023-03-01T04:13:08;60.35;;;8.50;;
54139;SDS011;40046;53.254;5.900;2023-03-01T04:15:35;46.33;;;8.18;;
54139;SDS011;40046;53.254;5.900;2023-03-01T04:18:01;51.88;;;9.13;;
54139;SDS011;40046;53.254;5.900;2023-03-01T04:20:29;27.55;;;8.35;;
54139;SDS011;40046;53.254;5.900;2023-03-01T04:23:00;16.42;;;8.80;;
54139;SDS011;40046;53.254;5.900;2023-03-01T04:25:38;20.08;;;7.90;;
54139;SDS011;40046;53.254;5.900;2023-03-01T04:28:05;11.43;;;7.65;;
54139;SDS011;40046;53.254;5.900;2023-03-01T04:30:31;9.55;;;7.40;;
54139;SDS011;40046;53.254;5.900;2023-03-01T04:33:10;10.40;;;7.50;;
54139;SDS011;40046;53.254;5.900;2023-03-01T04:35:36;11.15;;;6.90;;
54139;SDS011;40046;53.254;5.900;2023-03-01T04:38:04;28.92;;;7.57;;
54139;SDS011;40046;53.254;5.900;2023-03-01T04:40:30;9.57;;;7.43;;
54139;SDS011;40046;53.254;5.900;2023-03-01T04:42:56;9.75;;;7.43;;
54139;SDS011;40046;53.254;5.900;2023-03-01T04:45:23;15.25;;;7.70;;
54139;SDS011;40046;53.254;5.900;2023-03-01T04:47:49;113.30;;;11.00;;
54139;SDS011;40046;53.254;5.900;2023-03-01T04:50:17;14.30;;;8.27;;
54139;SDS011;40046;53.254;5.900;2023-03-01T04:52:48;15.57;;;8.98;;
54139;SDS011;40046;53.254;5.900;2023-03-01T04:55:15;11.25;;;7.72;;
54139;SDS011;40046;53.254;5.900;2023-03-01T04:57:41;10.43;;;7.78;;
54139;SDS011;40046;53.254;5.900;2023-03-01T05:00:09;9.68;;;6.95;;
54139;SDS011;40046;53.254;5.900;2023-03-01T05:02:54;12.18;;;7.65;;
54139;SDS011;40046;53.254;5.900;2023-03-01T05:05:28;9.27;;;7.15;;
54139;SDS011;40046;53.254;5.900;2023-03-01T05:07:56;9.25;;;6.80;;
54139;SDS011;40046;53.254;5.900;2023-03-01T05:10:23;9.30;;;6.53;;
54139;SDS011;40046;53.254;5.900;2023-03-01T05:12:49;8.85;;;6.72;;
54139;SDS011;40046;53.254;5.900;2023-03-01T05:15:17;9.73;;;7.25;;
54139;SDS011;40046;53.254;5.900;2023-03-01T05:17:43;9.65;;;7.03;;
54139;SDS011;40046;53.254;5.900;2023-03-01T05:20:11;8.73;;;6.28;;
54139;SDS011;40046;53.254;5.900;2023-03-01T05:22:37;9.40;;;6.78;;
54139;SDS011;40046;53.254;5.900;2023-03-01T05:25:04;11.35;;;7.22;;
54139;SDS011;40046;53.254;5.900;2023-03-01T05:27:31;10.02;;;7.00;;
54139;SDS011;40046;53.254;5.900;2023-03-01T05:29:57;9.77;;;7.13;;
54139;SDS011;40046;53.254;5.900;2023-03-01T05:32:23;9.77;;;6.90;;
54139;SDS011;40046;53.254;5.900;2023-03-01T05:34:49;11.00;;;6.60;;
54139;SDS011;40046;53.254;5.900;2023-03-01T05:37:17;9.35;;;7.03;;
54139;SDS011;40046;53.254;5.900;2023-03-01T05:39:44;9.13;;;7.05;;
54139;SDS011;40046;53.254;5.900;2023-03-01T05:42:10;11.10;;;7.15;;
54139;SDS011;40046;53.254;5.900;2023-03-01T05:44:37;8.45;;;6.28;;
54139;SDS011;40046;53.254;5.900;2023-03-01T05:47:03;10.35;;;7.13;;
54139;SDS011;40046;53.254;5.900;2023-03-01T05:49:29;8.88;;;6.43;;
54139;SDS011;40046;53.254;5.900;2023-03-01T05:51:57;9.57;;;7.25;;
54139;SDS011;40046;53.254;5.900;2023-03-01T05:54:23;13.68;;;7.50;;
54139;SDS011;40046;53.254;5.900;2023-03-01T05:56:49;10.50;;;7.85;;
54139;SDS011;40046;53.254;5.900;2023-03-01T05:59:15;13.13;;;7.82;;
54139;SDS011;40046;53.254;5.900;2023-03-01T06:01:41;13.10;;;8.60;;
54139;SDS011;40046;53.254;5.900;2023-03-01T06:04:08;11.20;;;7.95;;
54139;SDS011;40046;53.254;5.900;2023-03-01T06:06:35;22.38;;;14.48;;
54139;SDS011;40046;53.254;5.900;2023-03-01T06:09:03;18.48;;;10.77;;
54139;SDS011;40046;53.254;5.900;2023-03-01T06:11:29;17.40;;;10.50;;
54139;SDS011;40046;53.254;5.900;2023-03-01T06:13:55;12.85;;;8.60;;
54139;SDS011;40046;53.254;5.900;2023-03-01T06:16:21;17.58;;;9.68;;
54139;SDS011;40046;53.254;5.900;2023-03-01T06:18:47;20.20;;;9.07;;
54139;SDS011;40046;53.254;5.900;2023-03-01T06:21:14;19.67;;;9.13;;
54139;SDS011;40046;53.254;5.900;2023-03-01T06:23:40;17.85;;;7.90;;
54139;SDS011;40046;53.254;5.900;2023-03-01T06:26:07;35.63;;;7.15;;
54139;SDS011;40046;53.254;5.900;2023-03-01T06:28:33;52.22;;;8.80;;
54139;SDS011;40046;53.254;5.900;2023-03-01T06:30:59;30.63;;;8.25;;
54139;SDS011;40046;53.254;5.900;2023-03-01T06:33:26;21.20;;;7.82;;
54139;SDS011;40046;53.254;5.900;2023-03-01T06:35:54;19.90;;;8.05;;
54139;SDS011;40046;53.254;5.900;2023-03-01T06:38:21;62.28;;;10.63;;
54139;SDS011;40046;53.254;5.900;2023-03-01T06:40:51;11.57;;;8.23;;
54139;SDS011;40046;53.254;5.900;2023-03-01T06:43:19;17.80;;;8.43;;
54139;SDS011;40046;53.254;5.900;2023-03-01T06:45:45;13.50;;;8.30;;
54139;SDS011;40046;53.254;5.900;2023-03-01T06:48:11;23.83;;;8.60;;
54139;SDS011;40046;53.254;5.900;2023-03-01T06:50:37;42.65;;;8.93;;
54139;SDS011;40046;53.254;5.900;2023-03-01T06:53:03;89.10;;;10.73;;
54139;SDS011;40046;53.254;5.900;2023-03-01T06:55:30;282.20;;;20.00;;
54139;SDS011;40046;53.254;5.900;2023-03-01T06:57:57;108.85;;;10.27;;
54139;SDS011;40046;53.254;5.900;2023-03-01T07:00:23;223.07;;;15.57;;
54139;SDS011;40046;53.254;5.900;2023-03-01T07:02:50;77.82;;;9.05;;
54139;SDS011;40046;53.254;5.900;2023-03-01T07:05:16;62.10;;;8.30;;
54139;SDS011;40046;53.254;5.900;2023-03-01T07:07:42;25.38;;;8.43;;
54139;SDS011;40046;53.254;5.900;2023-03-01T07:10:09;58.53;;;9.77;;
54139;SDS011;40046;53.254;5.900;2023-03-01T07:12:35;39.88;;;9.48;;
54139;SDS011;40046;53.254;5.900;2023-03-01T07:15:01;15.93;;;7.30;;
54139;SDS011;40046;53.254;5.900;2023-03-01T07:17:28;11.13;;;8.15;;
54139;SDS011;40046;53.254;5.900;2023-03-01T07:19:54;10.15;;;7.72;;
54139;SDS011;40046;53.254;5.900;2023-03-01T07:22:20;10.15;;;7.10;;
54139;SDS011;40046;53.254;5.900;2023-03-01T07:24:46;11.35;;;8.23;;
54139;SDS011;40046;53.254;5.900;2023-03-01T07:27:12;11.35;;;8.15;;
54139;SDS011;40046;53.254;5.900;2023-03-01T07:29:38;12.13;;;9.25;;
54139;SDS011;40046;53.254;5.900;2023-03-01T07:32:05;10.85;;;8.15;;
54139;SDS011;40046;53.254;5.900;2023-03-01T07:34:31;13.05;;;9.00;;
54139;SDS011;40046;53.254;5.900;2023-03-01T07:36:57;12.60;;;9.02;;
54139;SDS011;40046;53.254;5.900;2023-03-01T07:39:24;12.25;;;9.25;;
54139;SDS011;40046;53.254;5.900;2023-03-01T07:41:50;14.32;;;10.20;;
54139;SDS011;40046;53.254;5.900;2023-03-01T07:44:20;16.27;;;10.52;;
54139;SDS011;40046;53.254;5.900;2023-03-01T07:46:46;16.35;;;10.65;;
54139;SDS011;40046;53.254;5.900;2023-03-01T07:49:12;14.40;;;9.57;;
54139;SDS011;40046;53.254;5.900;2023-03-01T07:51:38;17.40;;;12.07;;
54139;SDS011;40046;53.254;5.900;2023-03-01T07:54:05;19.58;;;12.63;;
54139;SDS011;40046;53.254;5.900;2023-03-01T07:56:31;23.50;;;14.68;;
54139;SDS011;40046;53.254;5.900;2023-03-01T07:58:58;22.00;;;15.38;;
54139;SDS011;40046;53.254;5.900;2023-03-01T08:01:24;21.13;;;14.88;;
54139;SDS011;40046;53.254;5.900;2023-03-01T08:03:51;18.27;;;13.82;;
54139;SDS011;40046;53.254;5.900;2023-03-01T08:06:17;20.52;;;13.68;;
54139;SDS011;40046;53.254;5.900;2023-03-01T08:08:44;19.33;;;13.50;;
54139;SDS011;40046;53.254;5.900;2023-03-01T08:11:11;19.05;;;13.13;;
54139;SDS011;40046;53.254;5.900;2023-03-01T08:13:37;17.80;;;13.07;;
54139;SDS011;40046;53.254;5.900;2023-03-01T08:16:04;19.38;;;14.20;;
54139;SDS011;40046;53.254;5.900;2023-03-01T08:18:31;17.15;;;12.25;;
54139;SDS011;40046;53.254;5.900;2023-03-01T08:21:01;15.95;;;12.02;;
54139;SDS011;40046;53.254;5.900;2023-03-01T08:23:27;19.95;;;13.23;;
54139;SDS011;40046;53.254;5.900;2023-03-01T08:25:55;20.10;;;12.55;;
54139;SDS011;40046;53.254;5.900;2023-03-01T08:28:23;19.42;;;12.63;;
54139;SDS011;40046;53.254;5.900;2023-03-01T08:30:49;17.02;;;12.10;;
54139;SDS011;40046;53.254;5.900;2023-03-01T08:33:15;14.13;;;11.20;;
54139;SDS011;40046;53.254;5.900;2023-03-01T08:35:41;15.50;;;11.80;;
54139;SDS011;40046;53.254;5.900;2023-03-01T08:38:07;17.13;;;12.48;;
54139;SDS011;40046;53.254;5.900;2023-03-01T08:40:34;18.80;;;13.45;;
54139;SDS011;40046;53.254;5.900;2023-03-01T08:43:02;24.42;;;15.77;;
54139;SDS011;40046;53.254;5.900;2023-03-01T08:45:30;21.77;;;15.70;;
54139;SDS011;40046;53.254;5.900;2023-03-01T08:47:57;23.77;;;15.82;;
54139;SDS011;40046;53.254;5.900;2023-03-01T08:50:23;26.40;;;18.83;;
54139;SDS011;40046;53.254;5.900;2023-03-01T08:52:49;27.85;;;18.45;;
54139;SDS011;40046;53.254;5.900;2023-03-01T08:55:15;26.48;;;19.30;;
54139;SDS011;40046;53.254;5.900;2023-03-01T08:57:42;31.92;;;20.52;;
54139;SDS011;40046;53.254;5.900;2023-03-01T09:00:09;26.48;;;19.52;;
54139;SDS011;40046;53.254;5.900;2023-03-01T09:02:36;30.27;;;20.98;;
54139;SDS011;40046;53.254;5.900;2023-03-01T09:05:03;29.80;;;20.88;;
54139;SDS011;40046;53.254;5.900;2023-03-01T09:07:30;28.10;;;19.10;;
54139;SDS011;40046;53.254;5.900;2023-03-01T09:09:56;29.63;;;21.02;;
54139;SDS011;40046;53.254;5.900;2023-03-01T09:12:22;30.33;;;20.13;;
54139;SDS011;40046;53.254;5.900;2023-03-01T09:14:50;29.00;;;19.67;;
54139;SDS011;40046;53.254;5.900;2023-03-01T09:17:16;26.70;;;19.67;;
54139;SDS011;40046;53.254;5.900;2023-03-01T09:19:42;27.92;;;19.13;;
54139;SDS011;40046;53.254;5.900;2023-03-01T09:22:08;27.02;;;20.30;;
54139;SDS011;40046;53.254;5.900;2023-03-01T09:24:34;30.90;;;19.15;;
54139;SDS011;40046;53.254;5.900;2023-03-01T09:27:00;24.67;;;17.13;;
54139;SDS011;40046;53.254;5.900;2023-03-01T09:29:27;27.58;;;17.55;;
54139;SDS011;40046;53.254;5.900;2023-03-01T09:31:54;24.85;;;16.70;;
54139;SDS011;40046;53.254;5.900;2023-03-01T09:34:21;22.58;;;16.48;;
54139;SDS011;40046;53.254;5.900;2023-03-01T09:36:48;25.92;;;17.10;;
54139;SDS011;40046;53.254;5.900;2023-03-01T09:39:15;20.75;;;16.02;;
54139;SDS011;40046;53.254;5.900;2023-03-01T09:41:49;21.17;;;15.75;;
54139;SDS011;40046;53.254;5.900;2023-03-01T09:44:21;20.52;;;15.25;;
54139;SDS011;40046;53.254;5.900;2023-03-01T09:46:49;20.95;;;16.05;;
54139;SDS011;40046;53.254;5.900;2023-03-01T09:49:18;22.50;;;15.93;;
54139;SDS011;40046;53.254;5.900;2023-03-01T09:51:54;21.23;;;14.32;;
54139;SDS011;40046;53.254;5.900;2023-03-01T09:54:20;21.38;;;15.45;;
54139;SDS011;40046;53.254;5.900;2023-03-01T09:56:52;23.10;;;15.77;;
54139;SDS011;40046;53.254;5.900;2023-03-01T09:59:23;20.02;;;15.23;;
54139;SDS011;40046;53.254;5.900;2023-03-01T10:04:41;18.83;;;14.07;;
54139;SDS011;40046;53.254;5.900;2023-03-01T10:09:39;18.48;;;14.38;;
54139;SDS011;40046;53.254;5.900;2023-03-01T10:12:10;18.75;;;14.57;;
54139;SDS011;40046;53.254;5.900;2023-03-01T10:14:43;21.60;;;14.90;;
54139;SDS011;40046;53.254;5.900;2023-03-01T10:19:42;23.13;;;15.15;;
54139;SDS011;40046;53.254;5.900;2023-03-01T10:22:20;20.45;;;15.20;;
54139;SDS011;40046;53.254;5.900;2023-03-01T10:24:47;20.60;;;15.38;;
54139;SDS011;40046;53.254;5.900;2023-03-01T10:27:18;21.67;;;15.18;;
54139;SDS011;40046;53.254;5.900;2023-03-01T10:30:29;20.67;;;15.38;;
54139;SDS011;40046;53.254;5.900;2023-03-01T10:32:36;22.75;;;16.33;;
54139;SDS011;40046;53.254;5.900;2023-03-01T10:35:15;20.63;;;15.27;;
54139;SDS011;40046;53.254;5.900;2023-03-01T10:37:55;20.50;;;15.55;;
54139;SDS011;40046;53.254;5.900;2023-03-01T10:40:22;20.42;;;14.85;;
54139;SDS011;40046;53.254;5.900;2023-03-01T10:42:48;21.63;;;14.88;;
54139;SDS011;40046;53.254;5.900;2023-03-01T10:47:41;20.10;;;14.98;;
54139;SDS011;40046;53.254;5.900;2023-03-01T10:50:20;19.50;;;14.32;;
54139;SDS011;40046;53.254;5.900;2023-03-01T10:53:00;20.05;;;14.40;;
54139;SDS011;40046;53.254;5.900;2023-03-01T10:55:35;19.55;;;15.05;;
54139;SDS011;40046;53.254;5.900;2023-03-01T10:58:22;19.95;;;15.68;;
54139;SDS011;40046;53.254;5.900;2023-03-01T11:00:49;16.40;;;13.65;;
54139;SDS011;40046;53.254;5.900;2023-03-01T11:03:18;16.02;;;13.23;;
54139;SDS011;40046;53.254;5.900;2023-03-01T11:05:55;18.15;;;13.98;;
54139;SDS011;40046;53.254;5.900;2023-03-01T11:13:32;18.50;;;13.88;;
54139;SDS011;40046;53.254;5.900;2023-03-01T11:15:59;17.73;;;12.60;;
54139;SDS011;40046;53.254;5.900;2023-03-01T11:18:25;17.10;;;12.73;;
54139;SDS011;40046;53.254;5.900;2023-03-01T11:20:53;14.23;;;12.23;;
54139;SDS011;40046;53.254;5.900;2023-03-01T11:23:21;13.43;;;10.52;;
54139;SDS011;40046;53.254;5.900;2023-03-01T11:26:05;16.73;;;11.95;;
54139;SDS011;40046;53.254;5.900;2023-03-01T11:28:33;14.70;;;11.45;;
54139;SDS011;40046;53.254;5.900;2023-03-01T11:31:06;13.70;;;11.43;;
54139;SDS011;40046;53.254;5.900;2023-03-01T11:38:26;15.32;;;11.57;;
54139;SDS011;40046;53.254;5.900;2023-03-01T11:43:41;17.67;;;11.07;;
54139;SDS011;40046;53.254;5.900;2023-03-01T11:51:22;15.80;;;11.82;;
54139;SDS011;40046;53.254;5.900;2023-03-01T11:54:06;18.15;;;12.98;;
54139;SDS011;40046;53.254;5.900;2023-03-01T11:56:41;16.15;;;12.68;;
54139;SDS011;40046;53.254;5.900;2023-03-01T12:07:37;14.20;;;10.65;;
54139;SDS011;40046;53.254;5.900;2023-03-01T12:10:23;17.77;;;12.93;;
54139;SDS011;40046;53.254;5.900;2023-03-01T12:15:28;18.15;;;12.15;;
54139;SDS011;40046;53.254;5.900;2023-03-01T12:21:03;15.57;;;12.35;;
54139;SDS011;40046;53.254;5.900;2023-03-01T12:28:31;16.98;;;11.88;;
54139;SDS011;40046;53.254;5.900;2023-03-01T12:46:47;16.40;;;11.15;;
54139;SDS011;40046;53.254;5.900;2023-03-01T12:50:18;13.90;;;11.70;;
54139;SDS011;40046;53.254;5.900;2023-03-01T12:52:24;16.73;;;12.15;;
54139;SDS011;40046;53.254;5.900;2023-03-01T12:54:55;16.55;;;12.02;;
54139;SDS011;40046;53.254;5.900;2023-03-01T12:57:42;16.67;;;11.60;;
54139;SDS011;40046;53.254;5.900;2023-03-01T13:00:28;15.88;;;12.13;;
54139;SDS011;40046;53.254;5.900;2023-03-01T13:03:00;18.45;;;13.32;;
54139;SDS011;40046;53.254;5.900;2023-03-01T13:08:20;19.70;;;12.57;;
54139;SDS011;40046;53.254;5.900;2023-03-01T13:10:48;29.45;;;15.70;;
54139;SDS011;40046;53.254;5.900;2023-03-01T13:15:44;24.23;;;13.57;;
54139;SDS011;40046;53.254;5.900;2023-03-01T13:23:23;23.58;;;13.82;;
54139;SDS011;40046;53.254;5.900;2023-03-01T13:30:58;19.77;;;11.45;;
54139;SDS011;40046;53.254;5.900;2023-03-01T13:35:54;15.13;;;11.40;;
54139;SDS011;40046;53.254;5.900;2023-03-01T13:41:02;18.08;;;12.35;;
54139;SDS011;40046;53.254;5.900;2023-03-01T13:43:33;16.75;;;11.65;;
54139;SDS011;40046;53.254;5.900;2023-03-01T13:46:00;15.48;;;10.98;;
54139;SDS011;40046;53.254;5.900;2023-03-01T13:48:28;16.00;;;12.10;;
54139;SDS011;40046;53.254;5.900;2023-03-01T13:50:58;16.90;;;10.93;;
54139;SDS011;40046;53.254;5.900;2023-03-01T13:53:26;15.65;;;10.70;;
54139;SDS011;40046;53.254;5.900;2023-03-01T13:56:07;15.90;;;11.57;;
54139;SDS011;40046;53.254;5.900;2023-03-01T13:58:43;18.60;;;12.60;;
54139;SDS011;40046;53.254;5.900;2023-03-01T14:01:20;16.75;;;11.38;;
54139;SDS011;40046;53.254;5.900;2023-03-01T14:03:46;17.65;;;11.45;;
54139;SDS011;40046;53.254;5.900;2023-03-01T14:06:13;17.67;;;11.00;;
54139;SDS011;40046;53.254;5.900;2023-03-01T14:08:43;15.95;;;11.82;;
54139;SDS011;40046;53.254;5.900;2023-03-01T14:21:27;15.25;;;11.80;;
54139;SDS011;40046;53.254;5.900;2023-03-01T14:23:53;17.27;;;11.52;;
54139;SDS011;40046;53.254;5.900;2023-03-01T14:26:20;17.98;;;10.77;;
54139;SDS011;40046;53.254;5.900;2023-03-01T14:28:46;17.48;;;10.63;;
54139;SDS011;40046;53.254;5.900;2023-03-01T14:33:58;13.77;;;10.35;;
54139;SDS011;40046;53.254;5.900;2023-03-01T14:36:28;15.90;;;9.13;;
54139;SDS011;40046;53.254;5.900;2023-03-01T14:38:55;13.45;;;9.30;;
54139;SDS011;40046;53.254;5.900;2023-03-01T14:41:24;11.30;;;8.77;;
54139;SDS011;40046;53.254;5.900;2023-03-01T14:43:58;12.60;;;8.43;;
54139;SDS011;40046;53.254;5.900;2023-03-01T14:46:26;15.73;;;8.88;;
54139;SDS011;40046;53.254;5.900;2023-03-01T14:48:56;12.38;;;8.70;;
54139;SDS011;40046;53.254;5.900;2023-03-01T14:51:24;14.55;;;8.90;;
54139;SDS011;40046;53.254;5.900;2023-03-01T14:53:50;9.80;;;7.60;;
54139;SDS011;40046;53.254;5.900;2023-03-01T14:56:16;10.93;;;8.15;;
54139;SDS011;40046;53.254;5.900;2023-03-01T14:58:43;11.50;;;8.10;;
54139;SDS011;40046;53.254;5.900;2023-03-01T15:01:16;11.13;;;7.88;;
54139;SDS011;40046;53.254;5.900;2023-03-01T15:03:43;10.82;;;8.20;;
54139;SDS011;40046;53.254;5.900;2023-03-01T15:06:10;11.25;;;8.48;;
54139;SDS011;40046;53.254;5.900;2023-03-01T15:08:44;13.05;;;8.55;;
54139;SDS011;40046;53.254;5.900;2023-03-01T15:11:22;11.82;;;7.90;;
54139;SDS011;40046;53.254;5.900;2023-03-01T15:13:50;13.13;;;8.05;;
54139;SDS011;40046;53.254;5.900;2023-03-01T15:16:18;15.30;;;8.52;;
54139;SDS011;40046;53.254;5.900;2023-03-01T15:18:48;12.63;;;7.82;;
54139;SDS011;40046;53.254;5.900;2023-03-01T15:21:17;13.25;;;9.18;;
54139;SDS011;40046;53.254;5.900;2023-03-01T15:23:47;14.48;;;8.48;;
54139;SDS011;40046;53.254;5.900;2023-03-01T15:26:29;12.73;;;8.85;;
54139;SDS011;40046;53.254;5.900;2023-03-01T15:28:56;12.55;;;8.85;;
54139;SDS011;40046;53.254;5.900;2023-03-01T15:31:28;13.13;;;8.85;;
54139;SDS011;40046;53.254;5.900;2023-03-01T15:34:19;12.40;;;8.68;;
54139;SDS011;40046;53.254;5.900;2023-03-01T15:36:47;10.85;;;8.18;;
54139;SDS011;40046;53.254;5.900;2023-03-01T15:42:08;13.77;;;9.15;;
54139;SDS011;40046;53.254;5.900;2023-03-01T15:44:36;13.60;;;9.73;;
54139;SDS011;40046;53.254;5.900;2023-03-01T15:47:05;15.13;;;10.07;;
54139;SDS011;40046;53.254;5.900;2023-03-01T15:52:00;15.27;;;10.93;;
54139;SDS011;40046;53.254;5.900;2023-03-01T15:54:28;19.30;;;12.73;;
54139;SDS011;40046;53.254;5.900;2023-03-01T15:56:54;14.88;;;11.48;;
54139;SDS011;40046;53.254;5.900;2023-03-01T15:59:21;18.98;;;12.45;;
54139;SDS011;40046;53.254;5.900;2023-03-01T16:01:47;18.90;;;13.38;;
54139;SDS011;40046;53.254;5.900;2023-03-01T16:04:15;16.90;;;12.75;;
54139;SDS011;40046;53.254;5.900;2023-03-01T16:06:49;20.02;;;14.57;;
54139;SDS011;40046;53.254;5.900;2023-03-01T16:09:19;22.50;;;14.70;;
54139;SDS011;40046;53.254;5.900;2023-03-01T16:11:46;20.90;;;13.88;;
54139;SDS011;40046;53.254;5.900;2023-03-01T16:14:13;24.15;;;15.40;;
54139;SDS011;40046;53.254;5.900;2023-03-01T16:16:40;24.10;;;16.38;;
54139;SDS011;40046;53.254;5.900;2023-03-01T16:19:06;22.70;;;15.27;;
54139;SDS011;40046;53.254;5.900;2023-03-01T16:21:32;23.98;;;15.13;;
54139;SDS011;40046;53.254;5.900;2023-03-01T16:23:58;19.85;;;15.27;;
54139;SDS011;40046;53.254;5.900;2023-03-01T16:26:24;20.60;;;15.52;;